sensor_id;sensor_type;location;lat;lon;timestamp;pressure;altitude;pressure_sealevel;temperature;humidity
29239;BME280;16267;48.194;11.546;2022-11-23T00:01:12;94734.81;;;6.05;94.29
29239;BME280;16267;48.194;11.546;2022-11-23T00:03:38;94729.47;;;6.05;94.83
29239;BME280;16267;48.194;11.546;2022-11-23T00:06:04;94741.25;;;6.08;94.73
29239;BME280;16267;48.194;11.546;2022-11-23T00:08:30;94737.06;;;6.07;94.87
29239;BME280;16267;48.194;11.546;2022-11-23T00:10:59;94735.91;;;6.08;94.35
29239;BME280;16267;48.194;11.546;2022-11-23T00:13:25;94731.34;;;6.08;94.63
29239;BME280;16267;48.194;11.546;2022-11-23T00:15:50;94730.59;;;6.08;94.87
29239;BME280;16267;48.194;11.546;2022-11-23T00:18:16;94728.69;;;6.08;95.12
29239;BME280;16267;48.194;11.546;2022-11-23T00:20:42;94737.41;;;6.09;94.61
29239;BME280;16267;48.194;11.546;2022-11-23T00:23:08;94744.28;;;6.10;94.19
29239;BME280;16267;48.194;11.546;2022-11-23T00:25:34;94735.88;;;6.11;94.43
29239;BME280;16267;48.194;11.546;2022-11-23T00:28:00;94735.88;;;6.11;93.91
29239;BME280;16267;48.194;11.546;2022-11-23T00:30:25;94737.78;;;6.11;94.14
29239;BME280;16267;48.194;11.546;2022-11-23T00:32:52;94739.28;;;6.12;94.07
29239;BME280;16267;48.194;11.546;2022-11-23T00:35:18;94732.81;;;6.13;93.53
29239;BME280;16267;48.194;11.546;2022-11-23T00:37:44;94730.91;;;6.13;93.60
29239;BME280;16267;48.194;11.546;2022-11-23T00:40:10;94727.81;;;6.15;93.24
29239;BME280;16267;48.194;11.546;2022-11-23T00:42:36;94732.41;;;6.14;93.40
29239;BME280;16267;48.194;11.546;2022-11-23T00:45:02;94738.47;;;6.15;93.23
29239;BME280;16267;48.194;11.546;2022-11-23T00:47:28;94737.34;;;6.16;92.75
29239;BME280;16267;48.194;11.546;2022-11-23T00:49:53;94732.75;;;6.16;93.13
29239;BME280;16267;48.194;11.546;2022-11-23T00:52:19;94727.44;;;6.16;92.96
29239;BME280;16267;48.194;11.546;2022-11-23T00:54:45;94729.69;;;6.18;93.28
29239;BME280;16267;48.194;11.546;2022-11-23T00:57:10;94726.25;;;6.17;93.23
29239;BME280;16267;48.194;11.546;2022-11-23T00:59:36;94727.00;;;6.18;93.12
29239;BME280;16267;48.194;11.546;2022-11-23T01:02:02;94723.59;;;6.17;93.61
29239;BME280;16267;48.194;11.546;2022-11-23T01:04:28;94720.19;;;6.17;93.40
29239;BME280;16267;48.194;11.546;2022-11-23T01:06:56;94724.75;;;6.16;93.39
29239;BME280;16267;48.194;11.546;2022-11-23T01:09:22;94726.25;;;6.17;93.63
29239;BME280;16267;48.194;11.546;2022-11-23T01:11:52;94726.69;;;6.16;93.68
29239;BME280;16267;48.194;11.546;2022-11-23T01:14:19;94732.00;;;6.16;93.60
29239;BME280;16267;48.194;11.546;2022-11-23T01:16:46;94725.94;;;6.15;93.38
29239;BME280;16267;48.194;11.546;2022-11-23T01:19:15;94732.41;;;6.14;93.38
29239;BME280;16267;48.194;11.546;2022-11-23T01:21:42;94727.81;;;6.15;93.28
29239;BME280;16267;48.194;11.546;2022-11-23T01:24:16;94734.31;;;6.14;93.32
29239;BME280;16267;48.194;11.546;2022-11-23T01:26:42;94735.47;;;6.13;93.32
29239;BME280;16267;48.194;11.546;2022-11-23T01:29:09;94735.47;;;6.13;93.57
29239;BME280;16267;48.194;11.546;2022-11-23T01:31:35;94741.19;;;6.11;93.78
29239;BME280;16267;48.194;11.546;2022-11-23T01:34:02;94739.28;;;6.12;93.45
29239;BME280;16267;48.194;11.546;2022-11-23T01:36:31;94742.38;;;6.10;93.45
29239;BME280;16267;48.194;11.546;2022-11-23T01:38:58;94742.38;;;6.10;93.41
29239;BME280;16267;48.194;11.546;2022-11-23T01:41:28;94735.50;;;6.09;93.15
29239;BME280;16267;48.194;11.546;2022-11-23T01:43:55;94738.94;;;6.10;93.14
29239;BME280;16267;48.194;11.546;2022-11-23T01:46:21;94743.50;;;6.09;92.98
29239;BME280;16267;48.194;11.546;2022-11-23T01:49:00;94745.81;;;6.07;93.16
29239;BME280;16267;48.194;11.546;2022-11-23T01:51:35;94751.16;;;6.07;92.97
29239;BME280;16267;48.194;11.546;2022-11-23T01:54:06;94753.81;;;6.07;93.13
29239;BME280;16267;48.194;11.546;2022-11-23T01:56:43;94757.63;;;6.06;93.31
29239;BME280;16267;48.194;11.546;2022-11-23T01:59:15;94762.59;;;6.04;92.93
29239;BME280;16267;48.194;11.546;2022-11-23T02:01:42;94757.69;;;6.02;92.45
29239;BME280;16267;48.194;11.546;2022-11-23T02:04:12;94751.97;;;6.00;92.32
29239;BME280;16267;48.194;11.546;2022-11-23T02:06:42;94750.06;;;6.01;92.48
29239;BME280;16267;48.194;11.546;2022-11-23T02:09:10;94754.28;;;5.98;92.67
29239;BME280;16267;48.194;11.546;2022-11-23T02:11:36;94753.94;;;5.96;92.65
29239;BME280;16267;48.194;11.546;2022-11-23T02:14:02;94753.19;;;5.96;92.73
29239;BME280;16267;48.194;11.546;2022-11-23T02:16:28;94765.75;;;5.95;92.78
29239;BME280;16267;48.194;11.546;2022-11-23T02:18:54;94762.75;;;5.93;92.51
29239;BME280;16267;48.194;11.546;2022-11-23T02:21:21;94755.84;;;5.92;92.83
29239;BME280;16267;48.194;11.546;2022-11-23T02:24:06;94753.59;;;5.91;93.03
29239;BME280;16267;48.194;11.546;2022-11-23T02:26:35;94753.25;;;5.89;92.67
29239;BME280;16267;48.194;11.546;2022-11-23T02:29:27;94754.03;;;5.86;92.34
29239;BME280;16267;48.194;11.546;2022-11-23T02:31:53;94753.69;;;5.84;91.97
29239;BME280;16267;48.194;11.546;2022-11-23T02:34:19;94755.97;;;5.81;92.38
29239;BME280;16267;48.194;11.546;2022-11-23T02:36:52;94751.47;;;5.78;92.21
29239;BME280;16267;48.194;11.546;2022-11-23T02:41:52;94751.91;;;5.73;92.21
29239;BME280;16267;48.194;11.546;2022-11-23T02:47:06;94755.34;;;5.70;92.16
29239;BME280;16267;48.194;11.546;2022-11-23T02:49:32;94750.81;;;5.67;92.13
29239;BME280;16267;48.194;11.546;2022-11-23T02:52:05;94749.72;;;5.65;92.18
29239;BME280;16267;48.194;11.546;2022-11-23T02:54:31;94749.38;;;5.63;92.02
29239;BME280;16267;48.194;11.546;2022-11-23T02:56:57;94750.16;;;5.59;92.07
29239;BME280;16267;48.194;11.546;2022-11-23T02:59:22;94747.16;;;5.57;92.32
29239;BME280;16267;48.194;11.546;2022-11-23T03:01:48;94749.44;;;5.55;91.86
29239;BME280;16267;48.194;11.546;2022-11-23T03:04:14;94760.47;;;5.54;92.05
29239;BME280;16267;48.194;11.546;2022-11-23T03:06:40;94754.03;;;5.51;91.93
29239;BME280;16267;48.194;11.546;2022-11-23T03:09:06;94758.25;;;5.49;92.03
29239;BME280;16267;48.194;11.546;2022-11-23T03:11:32;94750.66;;;5.47;92.47
29239;BME280;16267;48.194;11.546;2022-11-23T03:14:00;94754.50;;;5.46;92.35
29239;BME280;16267;48.194;11.546;2022-11-23T03:16:26;94754.88;;;5.45;92.37
29239;BME280;16267;48.194;11.546;2022-11-23T03:18:52;94763.28;;;5.43;91.99
29239;BME280;16267;48.194;11.546;2022-11-23T03:21:18;94765.94;;;5.40;92.20
29239;BME280;16267;48.194;11.546;2022-11-23T03:23:43;94762.91;;;5.37;92.04
29239;BME280;16267;48.194;11.546;2022-11-23T03:26:10;94772.06;;;5.36;92.46
29239;BME280;16267;48.194;11.546;2022-11-23T03:28:35;94772.47;;;5.35;92.20
29239;BME280;16267;48.194;11.546;2022-11-23T03:31:01;94762.22;;;5.33;92.62
29239;BME280;16267;48.194;11.546;2022-11-23T03:33:27;94767.91;;;5.32;92.57
29239;BME280;16267;48.194;11.546;2022-11-23T03:35:53;94772.91;;;5.30;92.39
29239;BME280;16267;48.194;11.546;2022-11-23T03:38:18;94761.13;;;5.27;92.27
29239;BME280;16267;48.194;11.546;2022-11-23T03:40:45;94766.09;;;5.25;92.12
29239;BME280;16267;48.194;11.546;2022-11-23T03:43:12;94756.59;;;5.24;92.62
29239;BME280;16267;48.194;11.546;2022-11-23T03:45:38;94758.16;;;5.22;92.67
29239;BME280;16267;48.194;11.546;2022-11-23T03:48:05;94757.78;;;5.20;92.41
29239;BME280;16267;48.194;11.546;2022-11-23T03:50:30;94754.75;;;5.18;92.07
29239;BME280;16267;48.194;11.546;2022-11-23T03:52:56;94755.16;;;5.16;92.29
29239;BME280;16267;48.194;11.546;2022-11-23T03:55:24;94756.69;;;5.13;92.10
29239;BME280;16267;48.194;11.546;2022-11-23T03:57:50;94749.50;;;5.10;91.84
29239;BME280;16267;48.194;11.546;2022-11-23T04:00:18;94757.88;;;5.09;91.90
29239;BME280;16267;48.194;11.546;2022-11-23T04:02:44;94754.09;;;5.06;92.00
29239;BME280;16267;48.194;11.546;2022-11-23T04:05:10;94748.03;;;5.06;92.28
29239;BME280;16267;48.194;11.546;2022-11-23T04:07:36;94751.47;;;5.03;92.50
29239;BME280;16267;48.194;11.546;2022-11-23T04:10:02;94748.44;;;5.01;92.37
29239;BME280;16267;48.194;11.546;2022-11-23T04:12:28;94748.06;;;4.99;92.10
29239;BME280;16267;48.194;11.546;2022-11-23T04:14:54;94751.16;;;4.97;92.46
29239;BME280;16267;48.194;11.546;2022-11-23T04:17:19;94749.66;;;4.96;92.73
29239;BME280;16267;48.194;11.546;2022-11-23T04:19:45;94748.88;;;4.96;92.73
29239;BME280;16267;48.194;11.546;2022-11-23T04:22:11;94748.88;;;4.96;92.63
29239;BME280;16267;48.194;11.546;2022-11-23T04:24:37;94743.97;;;4.94;92.88
29239;BME280;16267;48.194;11.546;2022-11-23T04:27:02;94749.28;;;4.94;93.11
29239;BME280;16267;48.194;11.546;2022-11-23T04:29:28;94750.41;;;4.93;93.25
29239;BME280;16267;48.194;11.546;2022-11-23T04:31:54;94747.41;;;4.91;92.64
29239;BME280;16267;48.194;11.546;2022-11-23T04:34:20;94747.41;;;4.91;93.13
29239;BME280;16267;48.194;11.546;2022-11-23T04:36:45;94752.34;;;4.89;92.54
29239;BME280;16267;48.194;11.546;2022-11-23T04:39:12;94748.94;;;4.88;93.00
29239;BME280;16267;48.194;11.546;2022-11-23T04:41:38;94742.88;;;4.88;93.19
29239;BME280;16267;48.194;11.546;2022-11-23T04:44:05;94745.53;;;4.88;93.15
29239;BME280;16267;48.194;11.546;2022-11-23T04:46:31;94748.56;;;4.86;92.92
29239;BME280;16267;48.194;11.546;2022-11-23T04:48:57;94740.97;;;4.85;92.91
29239;BME280;16267;48.194;11.546;2022-11-23T04:51:23;94740.97;;;4.85;92.77
29239;BME280;16267;48.194;11.546;2022-11-23T04:53:49;94747.06;;;4.85;93.05
29239;BME280;16267;48.194;11.546;2022-11-23T04:56:16;94742.13;;;4.84;93.32
29239;BME280;16267;48.194;11.546;2022-11-23T04:58:42;94744.03;;;4.83;93.16
29239;BME280;16267;48.194;11.546;2022-11-23T05:01:08;94746.69;;;4.83;93.18
29239;BME280;16267;48.194;11.546;2022-11-23T05:03:34;94736.81;;;4.84;93.18
29239;BME280;16267;48.194;11.546;2022-11-23T05:06:01;94744.78;;;4.84;93.29
29239;BME280;16267;48.194;11.546;2022-11-23T05:08:28;94740.22;;;4.84;93.79
29239;BME280;16267;48.194;11.546;2022-11-23T05:10:53;94735.66;;;4.85;93.94
29239;BME280;16267;48.194;11.546;2022-11-23T05:13:19;94732.25;;;4.84;94.22
29239;BME280;16267;48.194;11.546;2022-11-23T05:15:45;94737.94;;;4.86;94.13
29239;BME280;16267;48.194;11.546;2022-11-23T05:18:11;94734.53;;;4.86;94.59
29239;BME280;16267;48.194;11.546;2022-11-23T05:20:37;94731.47;;;4.87;94.38
29239;BME280;16267;48.194;11.546;2022-11-23T05:23:03;94737.56;;;4.88;94.83
29239;BME280;16267;48.194;11.546;2022-11-23T05:25:31;94733.75;;;4.89;94.82
29239;BME280;16267;48.194;11.546;2022-11-23T05:27:57;94731.44;;;4.91;94.46
29239;BME280;16267;48.194;11.546;2022-11-23T05:30:23;94729.53;;;4.91;94.87
29239;BME280;16267;48.194;11.546;2022-11-23T05:32:49;94719.66;;;4.92;94.84
29239;BME280;16267;48.194;11.546;2022-11-23T05:35:15;94735.59;;;4.92;94.76
29239;BME280;16267;48.194;11.546;2022-11-23T05:37:41;94734.44;;;4.93;94.96
29239;BME280;16267;48.194;11.546;2022-11-23T05:40:08;94731.03;;;4.92;94.82
29239;BME280;16267;48.194;11.546;2022-11-23T05:42:34;94731.78;;;4.93;94.83
29239;BME280;16267;48.194;11.546;2022-11-23T05:45:00;94725.34;;;4.94;94.58
29239;BME280;16267;48.194;11.546;2022-11-23T05:47:25;94728.75;;;4.95;94.97
29239;BME280;16267;48.194;11.546;2022-11-23T05:49:51;94727.59;;;4.96;94.84
29239;BME280;16267;48.194;11.546;2022-11-23T05:52:17;94731.78;;;4.97;94.87
29239;BME280;16267;48.194;11.546;2022-11-23T05:54:43;94729.13;;;4.97;95.16
29239;BME280;16267;48.194;11.546;2022-11-23T05:57:09;94735.19;;;4.97;95.53
29239;BME280;16267;48.194;11.546;2022-11-23T05:59:35;94728.72;;;4.98;95.43
29239;BME280;16267;48.194;11.546;2022-11-23T06:02:01;94724.94;;;4.99;95.30
29239;BME280;16267;48.194;11.546;2022-11-23T06:04:27;94732.13;;;4.99;95.10
29239;BME280;16267;48.194;11.546;2022-11-23T06:06:52;94724.94;;;4.99;95.39
29239;BME280;16267;48.194;11.546;2022-11-23T06:09:28;94722.25;;;4.99;95.17
29239;BME280;16267;48.194;11.546;2022-11-23T06:11:54;94722.59;;;5.01;95.26
29239;BME280;16267;48.194;11.546;2022-11-23T06:14:19;94723.38;;;5.02;95.66
29239;BME280;16267;48.194;11.546;2022-11-23T06:16:46;94734.03;;;5.02;95.37
29239;BME280;16267;48.194;11.546;2022-11-23T06:19:12;94729.78;;;5.04;95.30
29239;BME280;16267;48.194;11.546;2022-11-23T06:21:39;94721.81;;;5.04;95.39
29239;BME280;16267;48.194;11.546;2022-11-23T06:24:05;94723.34;;;5.05;95.14
29239;BME280;16267;48.194;11.546;2022-11-23T06:26:31;94717.59;;;5.07;95.52
29239;BME280;16267;48.194;11.546;2022-11-23T06:28:57;94729.78;;;5.08;95.49
29239;BME280;16267;48.194;11.546;2022-11-23T06:31:23;94732.44;;;5.08;95.30
29239;BME280;16267;48.194;11.546;2022-11-23T06:33:51;94721.06;;;5.07;95.50
29239;BME280;16267;48.194;11.546;2022-11-23T06:36:17;94731.28;;;5.09;95.38
29239;BME280;16267;48.194;11.546;2022-11-23T06:38:42;94733.56;;;5.10;95.87
29239;BME280;16267;48.194;11.546;2022-11-23T06:41:08;94739.63;;;5.11;95.67
29239;BME280;16267;48.194;11.546;2022-11-23T06:43:34;94741.53;;;5.10;96.05
29239;BME280;16267;48.194;11.546;2022-11-23T06:46:03;94736.97;;;5.11;96.41
29239;BME280;16267;48.194;11.546;2022-11-23T06:48:30;94739.22;;;5.12;96.38
29239;BME280;16267;48.194;11.546;2022-11-23T06:51:00;94745.31;;;5.13;96.18
29239;BME280;16267;48.194;11.546;2022-11-23T06:53:27;94744.53;;;5.16;96.12
29239;BME280;16267;48.194;11.546;2022-11-23T06:55:58;94743.78;;;5.16;96.17
29239;BME280;16267;48.194;11.546;2022-11-23T06:58:24;94749.44;;;5.18;96.15
29239;BME280;16267;48.194;11.546;2022-11-23T07:00:50;94749.06;;;5.19;96.52
29239;BME280;16267;48.194;11.546;2022-11-23T07:03:25;94745.22;;;5.20;96.33
29239;BME280;16267;48.194;11.546;2022-11-23T07:05:50;94755.50;;;5.22;96.17
29239;BME280;16267;48.194;11.546;2022-11-23T07:08:16;94751.66;;;5.23;96.28
29239;BME280;16267;48.194;11.546;2022-11-23T07:10:42;94751.28;;;5.24;96.26
29239;BME280;16267;48.194;11.546;2022-11-23T07:13:09;94754.28;;;5.26;96.69
29239;BME280;16267;48.194;11.546;2022-11-23T07:15:36;94756.56;;;5.28;97.29
29239;BME280;16267;48.194;11.546;2022-11-23T07:18:02;94761.84;;;5.31;97.66
29239;BME280;16267;48.194;11.546;2022-11-23T07:20:28;94761.47;;;5.33;97.81
29239;BME280;16267;48.194;11.546;2022-11-23T07:23:09;94767.91;;;5.35;98.31
29239;BME280;16267;48.194;11.546;2022-11-23T07:25:36;94767.50;;;5.37;98.99
29239;BME280;16267;48.194;11.546;2022-11-23T07:28:05;94774.69;;;5.40;99.38
29239;BME280;16267;48.194;11.546;2022-11-23T07:30:33;94773.53;;;5.41;99.42
29239;BME280;16267;48.194;11.546;2022-11-23T07:33:08;94781.91;;;5.43;99.56
29239;BME280;16267;48.194;11.546;2022-11-23T07:35:36;94776.91;;;5.45;99.65
29239;BME280;16267;48.194;11.546;2022-11-23T07:38:02;94779.94;;;5.47;99.43
29239;BME280;16267;48.194;11.546;2022-11-23T07:40:28;94778.75;;;5.52;99.58
29239;BME280;16267;48.194;11.546;2022-11-23T07:43:02;94783.69;;;5.53;99.84
29239;BME280;16267;48.194;11.546;2022-11-23T07:45:30;94788.94;;;5.57;100.00
29239;BME280;16267;48.194;11.546;2022-11-23T07:48:04;94786.28;;;5.61;100.00
29239;BME280;16267;48.194;11.546;2022-11-23T07:50:31;94788.88;;;5.64;100.00
29239;BME280;16267;48.194;11.546;2022-11-23T07:52:57;94793.03;;;5.69;100.00
29239;BME280;16267;48.194;11.546;2022-11-23T07:55:23;94795.25;;;5.74;100.00
29239;BME280;16267;48.194;11.546;2022-11-23T07:57:53;94791.41;;;5.78;100.00
29239;BME280;16267;48.194;11.546;2022-11-23T08:00:23;94796.69;;;5.82;100.00
29239;BME280;16267;48.194;11.546;2022-11-23T08:02:50;94796.25;;;5.87;100.00
29239;BME280;16267;48.194;11.546;2022-11-23T08:05:16;94804.63;;;5.86;98.50
29239;BME280;16267;48.194;11.546;2022-11-23T08:07:43;94802.28;;;5.91;99.24
29239;BME280;16267;48.194;11.546;2022-11-23T08:10:11;94805.34;;;5.93;98.35
29239;BME280;16267;48.194;11.546;2022-11-23T08:12:37;94798.47;;;5.96;98.24
29239;BME280;16267;48.194;11.546;2022-11-23T08:15:04;94809.03;;;6.03;99.01
29239;BME280;16267;48.194;11.546;2022-11-23T08:17:30;94801.78;;;6.07;98.88
29239;BME280;16267;48.194;11.546;2022-11-23T08:19:56;94812.38;;;6.11;99.01
29239;BME280;16267;48.194;11.546;2022-11-23T08:22:22;94813.44;;;6.17;99.38
29239;BME280;16267;48.194;11.546;2022-11-23T08:24:47;94812.25;;;6.21;98.77
29239;BME280;16267;48.194;11.546;2022-11-23T08:27:14;94815.25;;;6.23;96.77
29239;BME280;16267;48.194;11.546;2022-11-23T08:29:39;94815.22;;;6.27;97.53
29239;BME280;16267;48.194;11.546;2022-11-23T08:32:05;94809.44;;;6.32;97.50
29239;BME280;16267;48.194;11.546;2022-11-23T08:34:31;94800.97;;;6.37;97.73
29239;BME280;16267;48.194;11.546;2022-11-23T08:36:57;94806.66;;;6.43;97.60
29239;BME280;16267;48.194;11.546;2022-11-23T08:39:22;94802.75;;;6.47;96.65
29239;BME280;16267;48.194;11.546;2022-11-23T08:41:48;94801.56;;;6.52;96.78
29239;BME280;16267;48.194;11.546;2022-11-23T08:44:14;94798.47;;;6.57;95.85
29239;BME280;16267;48.194;11.546;2022-11-23T08:46:39;94801.06;;;6.61;94.94
29239;BME280;16267;48.194;11.546;2022-11-23T08:49:06;94804.41;;;6.65;94.89
29239;BME280;16267;48.194;11.546;2022-11-23T08:51:32;94806.31;;;6.68;93.51
29239;BME280;16267;48.194;11.546;2022-11-23T08:53:57;94809.28;;;6.74;93.99
29239;BME280;16267;48.194;11.546;2022-11-23T08:56:23;94804.63;;;6.78;94.29
29239;BME280;16267;48.194;11.546;2022-11-23T08:58:49;94803.06;;;6.80;93.86
29239;BME280;16267;48.194;11.546;2022-11-23T09:01:16;94803.38;;;6.86;93.44
29239;BME280;16267;48.194;11.546;2022-11-23T09:03:42;94800.63;;;6.89;93.71
29239;BME280;16267;48.194;11.546;2022-11-23T09:06:09;94799.81;;;6.92;93.07
29239;BME280;16267;48.194;11.546;2022-11-23T09:08:36;94803.22;;;6.97;92.79
29239;BME280;16267;48.194;11.546;2022-11-23T09:11:07;94804.66;;;7.01;91.55
29239;BME280;16267;48.194;11.546;2022-11-23T09:13:35;94805.34;;;7.05;91.29
29239;BME280;16267;48.194;11.546;2022-11-23T09:16:03;94802.22;;;7.10;92.24
29239;BME280;16267;48.194;11.546;2022-11-23T09:18:29;94798.34;;;7.15;92.18
29239;BME280;16267;48.194;11.546;2022-11-23T09:20:56;94797.94;;;7.17;91.02
29239;BME280;16267;48.194;11.546;2022-11-23T09:23:22;94795.97;;;7.21;90.70
29239;BME280;16267;48.194;11.546;2022-11-23T09:25:48;94806.16;;;7.26;90.01
29239;BME280;16267;48.194;11.546;2022-11-23T09:28:16;94800.03;;;7.29;90.29
29239;BME280;16267;48.194;11.546;2022-11-23T09:30:45;94794.22;;;7.34;90.81
29239;BME280;16267;48.194;11.546;2022-11-23T09:33:12;94805.16;;;7.40;90.22
29239;BME280;16267;48.194;11.546;2022-11-23T09:35:38;94793.63;;;7.46;90.36
29239;BME280;16267;48.194;11.546;2022-11-23T09:38:04;94803.16;;;7.67;89.72
29239;BME280;16267;48.194;11.546;2022-11-23T09:40:40;94795.50;;;7.69;88.72
29239;BME280;16267;48.194;11.546;2022-11-23T09:43:56;94795.97;;;7.84;87.10
29239;BME280;16267;48.194;11.546;2022-11-23T09:49:18;94789.13;;;8.23;80.89
29239;BME280;16267;48.194;11.546;2022-11-23T09:51:44;94790.44;;;8.35;82.29
29239;BME280;16267;48.194;11.546;2022-11-23T09:54:34;94791.25;;;8.32;82.88
29239;BME280;16267;48.194;11.546;2022-11-23T09:57:02;94784.31;;;8.34;83.32
29239;BME280;16267;48.194;11.546;2022-11-23T10:01:57;94782.13;;;8.49;80.83
29239;BME280;16267;48.194;11.546;2022-11-23T10:04:32;94785.00;;;9.07;80.75
29239;BME280;16267;48.194;11.546;2022-11-23T10:10:38;94770.63;;;10.85;69.52
29239;BME280;16267;48.194;11.546;2022-11-23T10:23:54;94766.44;;;11.45;60.97
29239;BME280;16267;48.194;11.546;2022-11-23T10:26:31;94758.13;;;11.17;65.02
29239;BME280;16267;48.194;11.546;2022-11-23T10:31:46;94762.84;;;11.13;62.12
29239;BME280;16267;48.194;11.546;2022-11-23T10:34:16;94754.03;;;11.25;65.96
29239;BME280;16267;48.194;11.546;2022-11-23T10:36:46;94755.31;;;11.33;67.68
29239;BME280;16267;48.194;11.546;2022-11-23T10:39:25;94746.94;;;11.19;67.02
29239;BME280;16267;48.194;11.546;2022-11-23T10:41:52;94742.53;;;11.25;66.18
29239;BME280;16267;48.194;11.546;2022-11-23T10:44:36;94738.97;;;11.28;60.70
29239;BME280;16267;48.194;11.546;2022-11-23T10:47:03;94739.69;;;10.93;57.04
29239;BME280;16267;48.194;11.546;2022-11-23T10:49:34;94738.53;;;10.82;57.49
29239;BME280;16267;48.194;11.546;2022-11-23T10:54:49;94734.00;;;11.61;62.92
29239;BME280;16267;48.194;11.546;2022-11-23T10:57:41;94740.22;;;11.71;63.56
29239;BME280;16267;48.194;11.546;2022-11-23T11:02:42;94734.69;;;11.87;63.04
29239;BME280;16267;48.194;11.546;2022-11-23T11:05:36;94732.69;;;12.00;61.13
29239;BME280;16267;48.194;11.546;2022-11-23T11:08:33;94725.06;;;12.30;62.78
29239;BME280;16267;48.194;11.546;2022-11-23T11:11:07;94731.94;;;12.71;62.20
29239;BME280;16267;48.194;11.546;2022-11-23T11:13:43;94734.81;;;12.77;57.13
29239;BME280;16267;48.194;11.546;2022-11-23T11:16:27;94723.13;;;12.71;55.38
29239;BME280;16267;48.194;11.546;2022-11-23T11:18:56;94723.69;;;12.25;52.94
29239;BME280;16267;48.194;11.546;2022-11-23T11:21:32;94727.75;;;12.70;52.86
29239;BME280;16267;48.194;11.546;2022-11-23T11:24:03;94725.53;;;13.37;52.67
29239;BME280;16267;48.194;11.546;2022-11-23T11:26:32;94725.03;;;14.03;53.52
29239;BME280;16267;48.194;11.546;2022-11-23T11:29:05;94723.44;;;13.59;49.93
29239;BME280;16267;48.194;11.546;2022-11-23T11:34:48;94718.94;;;12.70;52.07
29239;BME280;16267;48.194;11.546;2022-11-23T11:37:35;94719.66;;;12.30;50.39
29239;BME280;16267;48.194;11.546;2022-11-23T11:45:57;94713.09;;;11.78;53.55
29239;BME280;16267;48.194;11.546;2022-11-23T11:51:31;94712.97;;;11.59;54.84
29239;BME280;16267;48.194;11.546;2022-11-23T11:56:45;94698.44;;;11.35;54.06
29239;BME280;16267;48.194;11.546;2022-11-23T11:59:46;94694.94;;;11.25;55.53
29239;BME280;16267;48.194;11.546;2022-11-23T12:02:30;94695.50;;;11.20;56.22
29239;BME280;16267;48.194;11.546;2022-11-23T12:05:28;94697.69;;;11.00;53.67
29239;BME280;16267;48.194;11.546;2022-11-23T12:11:13;94688.69;;;10.93;57.14
29239;BME280;16267;48.194;11.546;2022-11-23T12:13:42;94689.56;;;10.90;56.41
29239;BME280;16267;48.194;11.546;2022-11-23T12:17:19;94692.25;;;10.78;53.48
29239;BME280;16267;48.194;11.546;2022-11-23T12:25:05;94682.19;;;10.69;54.71
29239;BME280;16267;48.194;11.546;2022-11-23T12:30:47;94685.41;;;10.64;57.06
29239;BME280;16267;48.194;11.546;2022-11-23T12:48:17;94677.38;;;10.38;53.31
29239;BME280;16267;48.194;11.546;2022-11-23T12:56:26;94671.59;;;10.14;51.49
29239;BME280;16267;48.194;11.546;2022-11-23T12:58:57;94671.69;;;10.23;53.80
29239;BME280;16267;48.194;11.546;2022-11-23T13:01:31;94672.44;;;10.24;52.12
29239;BME280;16267;48.194;11.546;2022-11-23T13:16:16;94677.78;;;10.11;53.68
29239;BME280;16267;48.194;11.546;2022-11-23T13:21:58;94680.25;;;10.05;53.78
29239;BME280;16267;48.194;11.546;2022-11-23T13:24:37;94671.22;;;9.99;52.53
29239;BME280;16267;48.194;11.546;2022-11-23T13:40:34;94679.50;;;9.92;54.55
29239;BME280;16267;48.194;11.546;2022-11-23T13:43:17;94685.28;;;9.91;53.51
29239;BME280;16267;48.194;11.546;2022-11-23T13:45:44;94681.41;;;9.79;51.23
29239;BME280;16267;48.194;11.546;2022-11-23T13:50:58;94680.97;;;9.80;54.00
29239;BME280;16267;48.194;11.546;2022-11-23T13:53:33;94669.59;;;9.76;52.57
29239;BME280;16267;48.194;11.546;2022-11-23T13:56:34;94661.56;;;9.76;53.31
29239;BME280;16267;48.194;11.546;2022-11-23T13:59:29;94655.13;;;9.74;52.80
29239;BME280;16267;48.194;11.546;2022-11-23T14:04:44;94657.47;;;9.72;52.71
29239;BME280;16267;48.194;11.546;2022-11-23T14:07:29;94652.56;;;9.70;53.34
29239;BME280;16267;48.194;11.546;2022-11-23T14:10:22;94651.38;;;9.71;54.58
29239;BME280;16267;48.194;11.546;2022-11-23T14:13:15;94653.72;;;9.69;53.83
29239;BME280;16267;48.194;11.546;2022-11-23T14:15:53;94655.75;;;9.65;54.17
29239;BME280;16267;48.194;11.546;2022-11-23T14:18:51;94649.75;;;9.61;54.50
29239;BME280;16267;48.194;11.546;2022-11-23T14:21:41;94655.09;;;9.61;53.61
29239;BME280;16267;48.194;11.546;2022-11-23T14:24:58;94656.69;;;9.58;53.49
29239;BME280;16267;48.194;11.546;2022-11-23T14:28:06;94654.97;;;9.52;53.62
29239;BME280;16267;48.194;11.546;2022-11-23T14:34:44;94663.81;;;9.36;54.49
29239;BME280;16267;48.194;11.546;2022-11-23T14:43:14;94661.53;;;9.22;57.42
29239;BME280;16267;48.194;11.546;2022-11-23T14:45:44;94660.19;;;9.13;57.71
29239;BME280;16267;48.194;11.546;2022-11-23T14:48:29;94665.66;;;9.10;58.65
29239;BME280;16267;48.194;11.546;2022-11-23T14:51:00;94671.75;;;9.10;59.26
29239;BME280;16267;48.194;11.546;2022-11-23T14:53:38;94666.06;;;9.08;59.50
29239;BME280;16267;48.194;11.546;2022-11-23T14:56:04;94669.91;;;9.07;60.43
29239;BME280;16267;48.194;11.546;2022-11-23T14:58:31;94666.91;;;9.05;60.53
29239;BME280;16267;48.194;11.546;2022-11-23T15:01:01;94666.91;;;9.05;60.43
29239;BME280;16267;48.194;11.546;2022-11-23T15:03:30;94669.59;;;9.05;60.84
29239;BME280;16267;48.194;11.546;2022-11-23T15:06:11;94667.66;;;9.06;61.06
29239;BME280;16267;48.194;11.546;2022-11-23T15:09:21;94672.34;;;9.02;61.17
29239;BME280;16267;48.194;11.546;2022-11-23T15:11:42;94667.75;;;9.02;61.82
29239;BME280;16267;48.194;11.546;2022-11-23T15:14:25;94671.28;;;8.99;62.56
29239;BME280;16267;48.194;11.546;2022-11-23T15:16:51;94667.84;;;8.99;63.18